CW0655 Weather Reports


Display with metric or nautical units.
time (UTC)temp
F
wind
direction
speed
MPH
gust
MPH
rain 1hr
in
rain 24hr
in
rain mn
in
humidity
%
barometer
mb
20190923164041 86 196 0.0 5.0 0.00 0.00 0.00 60 1007.8
20190923155040 83 139 0.0 3.0 0.00 0.00 0.00 69 1008.5
20190923154040 82 139 0.0 4.0 0.00 0.00 0.00 69 1008.7
20190923153040 82 91 0.0 4.0 0.00 0.00 0.00 72 1008.8
20190923150039 79 180 0.0 4.0 0.00 0.00 0.00 76 1009.3
20190923144039 77 217 1.0 6.0 0.00 0.00 0.00 78 1009.6
20190923141039 76 194 0.0 2.0 0.00 0.00 0.00 81 1009.8
20190923140039 76 194 0.0 3.0 0.00 0.00 0.00 81 1010.0
20190923135039 75 193 0.0 4.0 0.00 0.00 0.00 84 1010.1
20190923133039 73 175 0.0 2.0 0.00 0.00 0.00 87 1010.2
20190923131039 72 175 0.0 3.0 0.00 0.00 0.00 89 1010.5
20190923123038 68 175 0.0 2.0 0.00 0.00 0.00 94 1010.7
20190923115038 66 175 0.0 0.0 0.00 0.00 0.00 94 1010.8
20190923112038 66 175 0.0 1.0 0.00 0.00 0.00 94 1010.8
20190923111038 66 175 0.0 2.0 0.00 0.00 0.00 94 1010.8
20190923110037 66 175 0.0 2.0 0.00 0.00 0.00 93 1010.8
20190923104037 66 175 0.0 1.0 0.00 0.00 0.00 93 1010.9
20190923103037 66 175 0.0 1.0 0.00 0.00 0.00 93 1011.0
20190923101037 66 175 0.0 2.0 0.00 0.00 0.00 93 1011.0
20190923100036 66 175 0.0 2.0 0.00 0.00 0.00 93 1011.0
20190923090036 66 175 0.0 2.0 0.00 0.00 0.00 92 1011.0
20190923085036 66 175 0.0 2.0 0.00 0.00 0.00 92 1011.2
20190923080105 66 175 0.0 2.0 0.00 0.00 0.00 91 1011.6
20190923074034 66 175 0.0 2.0 0.00 0.00 0.00 91 1011.6
20190923073034 66 175 0.0 2.0 0.00 0.00 0.00 90 1011.8
20190923072034 66 175 0.0 0.0 0.00 0.00 0.00 90 1012.0
20190923070103 66 175 0.0 1.0 0.00 0.00 0.00 89 1012.0
20190923064103 66 175 0.0 0.0 0.00 0.00 0.00 89 1012.2
20190923063103 67 175 0.0 0.0 0.00 0.00 0.00 88 1012.3
20190923061103 67 175 0.0 0.0 0.00 0.00 0.00 88 1012.5
20190923060102 67 175 0.0 0.0 0.00 0.00 0.00 88 1012.7
20190923052102 67 175 0.0 0.0 0.00 0.00 0.00 88 1013.1
20190923051102 67 175 0.0 2.0 0.00 0.00 0.00 87 1013.2
20190923050101 67 175 1.0 2.0 0.00 0.00 0.00 87 1013.3
20190923042101 67 175 0.0 0.0 0.00 0.00 0.00 87 1013.6
20190923032100 69 175 0.0 2.0 0.00 0.00 0.00 85 1014.2
20190923025059 70 175 2.0 2.0 0.00 0.00 0.00 84 1014.5
20190923023059 70 175 0.0 1.0 0.00 0.00 0.00 84 1014.6
20190923020059 70 175 1.0 2.0 0.00 0.00 0.00 82 1015.0
20190923015059 70 175 2.0 3.0 0.00 0.00 0.00 82 1015.0
20190923013059 70 175 0.0 1.0 0.00 0.00 0.00 80 1015.1
20190923010058 72 175 0.0 1.0 0.00 0.00 0.00 77 1015.2
20190923005058 72 175 0.0 2.0 0.00 0.00 0.00 76 1015.3
20190923002057 72 175 0.0 0.0 0.00 0.00 0.00 76 1015.4
20190922234057 72 174 0.0 0.0 0.00 0.00 0.00 77 1015.2
20190922233057 72 174 0.0 0.0 0.00 0.00 0.00 76 1015.2
20190922232056 72 174 0.0 0.0 0.00 0.00 0.00 76 1015.2
20190922231056 72 174 0.0 0.0 0.00 0.00 0.00 75 1015.2
20190922222055 75 174 0.0 0.0 0.00 0.00 0.00 69 1015.4
20190922221055 76 174 0.0 0.0 0.00 0.00 0.00 69 1015.3
20190922215055 77 174 0.0 0.0 0.00 0.00 0.00 66 1015.3
20190922213055 78 174 0.0 1.0 0.00 0.00 0.00 63 1015.4
20190922212054 79 174 0.0 0.0 0.00 0.00 0.00 61 1015.6
20190922211054 80 174 0.0 3.0 0.00 0.00 0.00 58 1015.6
20190922210054 80 174 0.0 3.0 0.00 0.00 0.00 57 1015.7
20190922204054 79 180 0.0 1.0 0.00 0.00 0.00 59 1015.8
20190922203054 80 180 0.0 1.0 0.00 0.00 0.00 62 1015.9
20190922202053 80 180 0.0 2.0 0.00 0.00 0.00 57 1015.8
20190922194053 82 178 0.0 4.0 0.00 0.00 0.00 51 1016.3
20190922193053 82 200 2.0 3.0 0.00 0.00 0.00 52 1016.3
20190922192052 82 182 0.0 4.0 0.00 0.00 0.00 53 1016.6
20190922190052 83 115 0.0 4.0 0.00 0.00 0.00 49 1016.9
20190922185052 84 115 1.0 3.0 0.00 0.00 0.00 46 1017.1
20190922183051 83 112 0.0 4.0 0.00 0.00 0.00 45 1017.2
20190922182051 84 151 2.0 5.0 0.00 0.00 0.00 45 1017.3